createdAt,value
2019-04-29T00:04:38.016Z,8.70
2019-04-29T00:09:23.454Z,8.03
2019-04-29T00:14:09.295Z,9.07
2019-04-29T00:19:24.954Z,8.00
2019-04-29T00:24:09.889Z,8.53
2019-04-29T00:28:55.895Z,7.67
2019-04-29T00:33:42.758Z,8.47
2019-04-29T00:38:44.606Z,7.87
2019-04-29T00:43:46.744Z,7.90
2019-04-29T00:48:31.511Z,8.07
2019-04-29T00:53:16.142Z,7.30
2019-04-29T00:58:00.790Z,8.03
2019-04-29T01:02:45.465Z,7.50
2019-04-29T01:07:32.027Z,7.10
2019-04-29T01:12:16.839Z,7.50
2019-04-29T01:17:01.659Z,6.70
2019-04-29T01:21:46.791Z,6.87
2019-04-29T01:26:50.253Z,6.73
2019-04-29T01:31:34.997Z,6.33
2019-04-29T01:36:36.721Z,7.43
2019-04-29T01:41:23.469Z,6.30
2019-04-29T01:46:08.352Z,7.03
2019-04-29T01:50:53.049Z,5.97
2019-04-29T01:55:37.762Z,6.20
2019-04-29T02:00:22.502Z,5.80
2019-04-29T02:05:07.261Z,5.70
2019-04-29T02:10:00.735Z,5.10
2019-04-29T02:14:45.793Z,5.57
2019-04-29T02:19:30.656Z,5.00
2019-04-29T02:24:17.888Z,6.00
2019-04-29T02:29:02.616Z,5.30
2019-04-29T02:33:47.446Z,5.07
2019-04-29T02:38:44.329Z,5.33
2019-04-29T02:43:31.320Z,5.53
2019-04-29T02:48:16.133Z,5.33
2019-04-29T02:53:00.951Z,5.73
2019-04-29T02:58:12.485Z,5.87
2019-04-29T03:03:02.405Z,6.17
2019-04-29T03:07:47.177Z,6.83
2019-04-29T03:12:32.062Z,6.87
2019-04-29T03:17:18.839Z,7.27
2019-04-29T03:22:05.197Z,7.60
2019-04-29T03:26:50.004Z,8.07
2019-04-29T03:31:39.080Z,6.90
2019-04-29T03:36:21.429Z,7.20
2019-04-29T03:41:06.179Z,8.00
2019-04-29T03:45:51.324Z,7.63
2019-04-29T03:50:36.055Z,8.20
2019-04-29T03:55:38.131Z,8.43
2019-04-29T04:00:07.744Z,8.83
2019-04-29T04:05:03.155Z,9.17
2019-04-29T04:09:48.320Z,9.47
2019-04-29T04:14:36.031Z,9.87
2019-04-29T04:19:24.796Z,9.53
2019-04-29T04:24:09.787Z,8.87
2019-04-29T04:28:56.674Z,7.63
2019-04-29T04:33:41.635Z,8.20
2019-04-29T04:38:26.557Z,8.30
2019-04-29T04:43:13.323Z,7.93
2019-04-29T04:47:58.139Z,8.30
2019-04-29T04:52:43.378Z,7.97
2019-04-29T04:57:28.113Z,9.60
2019-04-29T05:02:13.010Z,10.13
2019-04-29T05:06:57.633Z,10.17
2019-04-29T05:11:42.369Z,10.30
2019-04-29T05:16:26.963Z,11.17
2019-04-29T05:21:11.750Z,11.80
2019-04-29T05:25:56.523Z,10.97
2019-04-29T05:30:41.261Z,11.60
2019-04-29T05:35:45.237Z,11.97
2019-04-29T05:40:47.354Z,11.57
2019-04-29T05:45:41.492Z,12.07
2019-04-29T05:50:47.489Z,12.63
2019-04-29T05:55:30.263Z,12.33
2019-04-29T06:00:18.906Z,12.63
2019-04-29T06:05:02.745Z,12.07
2019-04-29T06:09:58.999Z,11.77
2019-04-29T06:14:44.019Z,12.23
2019-04-29T06:19:28.964Z,12.43
2019-04-29T06:24:16.544Z,12.50
2019-04-29T06:29:01.468Z,12.50
2019-04-29T06:33:46.364Z,13.07
2019-04-29T06:38:31.306Z,13.43
2019-04-29T06:43:24.511Z,13.87
2019-04-29T06:48:07.569Z,14.73
2019-04-29T06:52:52.714Z,14.10
2019-04-29T06:57:38.963Z,13.93
2019-04-29T07:02:24.143Z,15.20
2019-04-29T07:07:11.365Z,17.07
2019-04-29T07:12:01.303Z,16.40
2019-04-29T07:16:44.428Z,17.00
2019-04-29T07:21:31.376Z,16.83
2019-04-29T07:26:21.546Z,18.10
2019-04-29T07:31:09.874Z,18.27
2019-04-29T07:35:54.459Z,18.40
2019-04-29T07:40:43.492Z,17.40
2019-04-29T07:45:44.736Z,17.17
2019-04-29T07:50:30.267Z,17.63
2019-04-29T07:55:16.731Z,17.40
2019-04-29T08:00:12.950Z,18.10
2019-04-29T08:04:55.934Z,15.40
2019-04-29T08:09:44.127Z,16.57
2019-04-29T08:14:29.858Z,16.17
2019-04-29T08:19:16.693Z,16.00
2019-04-29T08:24:07.218Z,16.67
2019-04-29T08:29:00.285Z,15.30
2019-04-29T08:33:55.139Z,14.93
2019-04-29T08:38:40.332Z,15.60
2019-04-29T08:43:43.135Z,14.33
2019-04-29T08:48:29.671Z,15.00
2019-04-29T08:53:14.763Z,14.37
2019-04-29T08:57:59.641Z,13.27
2019-04-29T09:02:46.937Z,11.90
2019-04-29T09:07:31.052Z,11.87
2019-04-29T09:12:19.331Z,11.70
2019-04-29T09:17:06.108Z,11.87
2019-04-29T09:21:52.565Z,11.77
2019-04-29T09:26:46.503Z,14.30
2019-04-29T09:31:31.549Z,13.30
2019-04-29T09:36:16.567Z,13.03
2019-04-29T09:41:08.345Z,11.70
2019-04-29T09:46:05.458Z,10.63
2019-04-29T09:50:50.473Z,10.93
2019-04-29T09:55:39.989Z,10.17
2019-04-29T10:00:46.520Z,10.90
2019-04-29T10:05:47.000Z,9.50
2019-04-29T10:10:31.841Z,10.37
2019-04-29T10:15:18.541Z,8.87
2019-04-29T10:20:13.731Z,9.20
2019-04-29T10:24:58.755Z,8.70
2019-04-29T10:29:45.259Z,7.90
2019-04-29T10:34:39.600Z,8.33
2019-04-29T10:39:51.328Z,7.23
2019-04-29T10:44:54.509Z,6.67
2019-04-29T10:49:49.744Z,6.47
2019-04-29T10:54:35.519Z,6.67
2019-04-29T10:59:20.513Z,6.20
2019-04-29T11:04:05.207Z,5.70
2019-04-29T11:08:54.496Z,5.90
2019-04-29T11:13:46.172Z,6.33
2019-04-29T11:18:55.032Z,6.13
2019-04-29T11:24:00.148Z,6.50
2019-04-29T11:28:47.046Z,6.30
2019-04-29T11:33:50.613Z,5.80
2019-04-29T11:38:38.392Z,6.47
2019-04-29T11:43:24.167Z,5.27
2019-04-29T11:48:09.078Z,6.23
2019-04-29T11:52:55.592Z,5.07
2019-04-29T11:57:46.854Z,5.40
2019-04-29T12:02:48.286Z,5.40
2019-04-29T12:07:34.109Z,5.27
2019-04-29T12:12:22.289Z,5.37
2019-04-29T12:17:18.896Z,5.80
2019-04-29T12:22:08.913Z,6.13
2019-04-29T12:26:51.455Z,5.63
2019-04-29T12:32:11.480Z,5.73
2019-04-29T12:36:56.904Z,6.40
2019-04-29T12:42:18.419Z,6.30
2019-04-29T12:47:26.550Z,6.03
2019-04-29T12:52:09.846Z,5.57
2019-04-29T12:56:56.264Z,6.20
2019-04-29T13:02:00.490Z,5.80
2019-04-29T13:07:13.397Z,5.30
2019-04-29T13:12:17.743Z,4.73
2019-04-29T13:17:14.262Z,4.97
2019-04-29T13:21:50.793Z,4.67
2019-04-29T13:26:37.267Z,4.77
2019-04-29T13:37:32.951Z,5.20
2019-04-29T13:42:24.851Z,4.60
2019-04-29T13:47:34.746Z,4.50
2019-04-29T13:52:20.044Z,5.53
2019-04-29T13:57:12.650Z,5.93
2019-04-29T14:02:07.451Z,5.23
2019-04-29T14:06:56.999Z,5.53
2019-04-29T14:11:38.201Z,5.70
2019-04-29T14:16:25.915Z,6.00
2019-04-29T14:21:12.025Z,5.50
2019-04-29T14:25:58.984Z,6.23
2019-04-29T14:30:47.617Z,6.57
2019-04-29T14:36:03.942Z,6.93
2019-04-29T14:40:48.837Z,6.80
2019-04-29T14:45:50.901Z,6.40
2019-04-29T14:50:36.165Z,7.60
2019-04-29T14:55:25.028Z,8.90
2019-04-29T15:00:20.267Z,9.00
2019-04-29T15:05:07.181Z,9.70
2019-04-29T15:09:58.548Z,10.53
2019-04-29T15:15:00.893Z,13.17
2019-04-29T15:20:14.369Z,13.33
2019-04-29T15:24:59.179Z,14.53
2019-04-29T15:29:44.556Z,15.53
2019-04-29T15:34:29.650Z,17.00
2019-04-29T15:39:14.653Z,17.93
2019-04-29T15:44:07.824Z,19.43
2019-04-29T15:48:50.575Z,22.27
2019-04-29T15:53:37.801Z,24.10
2019-04-29T15:58:22.774Z,24.90
2019-04-29T16:03:08.533Z,25.77
2019-04-29T16:08:05.184Z,28.50
2019-04-29T16:12:53.422Z,28.60
2019-04-29T16:17:39.844Z,29.30
2019-04-29T16:22:24.786Z,29.13
2019-04-29T16:27:10.550Z,28.27
2019-04-29T16:32:02.122Z,30.03
2019-04-29T16:36:43.763Z,29.57
2019-04-29T16:41:51.116Z,29.73
2019-04-29T16:46:37.514Z,27.60
2019-04-29T16:51:20.911Z,29.60
2019-04-29T16:56:06.078Z,29.40
2019-04-29T17:00:53.043Z,28.33
2019-04-29T17:05:37.819Z,28.20
2019-04-29T17:10:28.992Z,28.87
2019-04-29T17:15:24.297Z,30.27
2019-04-29T17:20:00.844Z,29.70
2019-04-29T17:24:46.172Z,28.33
2019-04-29T17:34:58.039Z,28.47
2019-04-29T17:35:19.280Z,28.47
2019-04-29T17:39:25.255Z,26.80
2019-04-29T17:44:27.641Z,26.87
2019-04-29T17:49:22.156Z,26.03
2019-04-29T17:54:09.224Z,26.20
2019-04-29T17:59:00.895Z,27.67
2019-04-29T18:04:03.421Z,27.33
2019-04-29T18:09:10.802Z,27.47
2019-04-29T18:13:56.885Z,26.50
2019-04-29T18:18:57.323Z,26.17
2019-04-29T18:23:56.780Z,25.83
2019-04-29T18:28:42.245Z,25.30
2019-04-29T18:33:30.312Z,25.90
2019-04-29T18:38:14.471Z,26.67
2019-04-29T18:42:59.898Z,26.17
2019-04-29T18:47:44.815Z,26.07
2019-04-29T18:52:32.890Z,26.17
2019-04-29T18:57:27.774Z,26.33
2019-04-29T19:02:09.148Z,26.57
2019-04-29T19:06:59.144Z,27.53
2019-04-29T19:11:38.962Z,25.60
2019-04-29T19:16:29.922Z,25.77
2019-04-29T19:21:15.504Z,24.30
2019-04-29T19:26:01.157Z,24.77
2019-04-29T19:30:46.870Z,23.40
2019-04-29T19:35:38.634Z,23.43
2019-04-29T19:40:21.898Z,24.23
2019-04-29T19:45:13.428Z,24.30
2019-04-29T19:49:55.768Z,22.73
2019-04-29T19:54:40.937Z,24.83
2019-04-29T19:59:26.805Z,23.57
2019-04-29T20:04:30.644Z,24.33
2019-04-29T20:09:22.431Z,24.60
2019-04-29T20:14:17.754Z,25.20
2019-04-29T20:21:28.766Z,25.40
2019-04-29T20:24:03.061Z,26.47
2019-04-29T20:28:51.108Z,26.60
2019-04-29T20:33:36.242Z,26.97
2019-04-29T20:38:21.684Z,26.73
2019-04-29T20:43:08.269Z,26.00
2019-04-29T20:47:53.468Z,27.30
2019-04-29T20:52:59.089Z,27.23
2019-04-29T20:57:41.178Z,37.10
2019-04-29T21:02:32.968Z,27.33
2019-04-29T21:07:18.505Z,25.27
2019-04-29T21:12:20.437Z,24.57
2019-04-29T21:17:09.416Z,25.53
2019-04-29T21:21:50.425Z,25.10
2019-04-29T21:26:37.978Z,22.23
2019-04-29T21:31:22.510Z,21.57
2019-04-29T21:36:34.930Z,19.90
2019-04-29T21:41:27.420Z,21.30
2019-04-29T21:46:12.814Z,16.47
2019-04-29T21:50:58.056Z,15.60
2019-04-29T21:55:43.182Z,14.43
2019-04-29T22:00:28.311Z,13.90
2019-04-29T22:05:16.924Z,12.57
2019-04-29T22:10:00.302Z,10.77
2019-04-29T22:14:52.599Z,10.50
2019-04-29T22:19:31.974Z,10.20
2019-04-29T22:24:17.440Z,9.60
2019-04-29T22:29:03.580Z,8.57
2019-04-29T22:33:49.210Z,8.30
2019-04-29T22:38:35.879Z,8.77
2019-04-29T22:43:27.219Z,8.57
2019-04-29T22:48:17.473Z,7.70
2019-04-29T22:53:01.207Z,6.67
2019-04-29T22:57:46.975Z,6.40
2019-04-29T23:02:32.146Z,6.00
2019-04-29T23:07:17.705Z,5.63
2019-04-29T23:12:05.340Z,5.50
2019-04-29T23:16:50.102Z,5.00
2019-04-29T23:21:56.795Z,3.93
2019-04-29T23:26:42.548Z,5.13
2019-04-29T23:31:28.325Z,4.83
2019-04-29T23:36:14.073Z,4.50
2019-04-29T23:40:59.736Z,4.17
2019-04-29T23:45:45.006Z,4.23
2019-04-29T23:50:29.864Z,4.27
2019-04-29T23:55:20.382Z,4.20
